createdAt,value
2018-07-14T00:01:04.083Z,14.30
2018-07-14T00:03:32.447Z,11.50
2018-07-14T00:06:00.730Z,16.60
2018-07-14T00:08:29.084Z,15.67
2018-07-14T00:10:57.609Z,11.70
2018-07-14T00:13:26.076Z,12.27
2018-07-14T00:15:54.451Z,19.13
2018-07-14T00:18:22.806Z,15.23
2018-07-14T00:20:50.879Z,12.93
2018-07-14T00:23:19.287Z,16.67
2018-07-14T00:25:52.935Z,11.70
2018-07-14T00:28:21.282Z,15.60
2018-07-14T00:30:49.602Z,14.27
2018-07-14T00:33:17.954Z,13.40
2018-07-14T00:35:46.365Z,11.00
2018-07-14T00:38:14.817Z,10.13
2018-07-14T00:40:43.225Z,9.43
2018-07-14T00:43:11.607Z,11.57
2018-07-14T00:45:42.019Z,13.53
2018-07-14T00:48:10.426Z,16.23
2018-07-14T00:50:49.284Z,8.47
2018-07-14T00:53:17.600Z,13.30
2018-07-14T00:55:45.937Z,13.07
2018-07-14T00:58:14.227Z,11.40
2018-07-14T01:00:42.559Z,10.17
2018-07-14T01:03:10.842Z,13.00
2018-07-14T01:05:39.359Z,12.53
2018-07-14T01:08:07.795Z,10.00
2018-07-14T01:10:36.268Z,11.47
2018-07-14T01:13:04.738Z,13.50
2018-07-14T01:15:33.267Z,10.00
2018-07-14T01:18:01.736Z,10.07
2018-07-14T01:20:30.067Z,10.47
2018-07-14T01:22:58.391Z,10.13
2018-07-14T01:25:26.763Z,10.93
2018-07-14T01:27:55.152Z,10.53
2018-07-14T01:30:23.503Z,11.60
2018-07-14T01:32:51.854Z,7.10
2018-07-14T01:35:20.153Z,12.83
2018-07-14T01:37:48.469Z,19.37
2018-07-14T01:40:16.832Z,14.17
2018-07-14T01:42:45.219Z,13.43
2018-07-14T01:45:13.615Z,11.30
2018-07-14T01:47:41.918Z,12.90
2018-07-14T01:50:10.426Z,10.97
2018-07-14T01:52:38.725Z,16.10
2018-07-14T01:55:07.025Z,12.47
2018-07-14T01:57:35.398Z,14.50
2018-07-14T02:00:03.808Z,10.90
2018-07-14T02:02:32.189Z,21.50
2018-07-14T02:05:00.589Z,11.10
2018-07-14T02:07:28.969Z,14.10
2018-07-14T02:09:57.401Z,13.00
2018-07-14T02:12:25.871Z,14.20
2018-07-14T02:14:54.235Z,14.13
2018-07-14T02:17:23.087Z,8.70
2018-07-14T02:19:51.510Z,11.00
2018-07-14T02:22:19.867Z,15.20
2018-07-14T02:24:48.217Z,13.30
2018-07-14T02:27:16.503Z,14.97
2018-07-14T02:29:44.778Z,28.17
2018-07-14T02:32:14.209Z,17.83
2018-07-14T02:34:42.509Z,13.63
2018-07-14T02:37:10.811Z,12.27
2018-07-14T02:39:39.222Z,17.57
2018-07-14T02:42:07.604Z,11.33
2018-07-14T02:44:35.934Z,18.00
2018-07-14T02:47:04.426Z,12.10
2018-07-14T02:49:32.750Z,17.30
2018-07-14T02:52:01.106Z,25.77
2018-07-14T02:54:29.398Z,16.30
2018-07-14T02:56:57.818Z,15.07
2018-07-14T02:59:26.098Z,17.97
2018-07-14T03:01:54.423Z,13.23
2018-07-14T03:04:22.734Z,14.63
2018-07-14T03:06:51.005Z,19.40
2018-07-14T03:09:19.261Z,16.53
2018-07-14T03:11:47.861Z,17.60
2018-07-14T03:14:16.482Z,14.30
2018-07-14T03:16:44.782Z,15.27
2018-07-14T03:19:13.050Z,15.90
2018-07-14T03:21:41.363Z,16.90
2018-07-14T03:24:09.725Z,12.73
2018-07-14T03:26:38.047Z,14.10
2018-07-14T03:29:06.222Z,16.77
2018-07-14T03:31:34.339Z,19.67
2018-07-14T03:34:02.727Z,13.23
2018-07-14T03:36:31.095Z,16.10
2018-07-14T03:38:59.437Z,14.73
2018-07-14T03:41:27.798Z,14.50
2018-07-14T03:43:56.094Z,14.20
2018-07-14T03:46:24.545Z,15.03
2018-07-14T03:48:52.866Z,13.07
2018-07-14T03:51:21.157Z,10.70
2018-07-14T03:53:49.438Z,12.30
2018-07-14T03:56:17.820Z,16.47
2018-07-14T03:58:46.142Z,12.67
2018-07-14T04:01:14.446Z,18.23
2018-07-14T04:03:42.781Z,19.83
2018-07-14T04:06:11.105Z,16.30
2018-07-14T04:08:39.380Z,14.57
2018-07-14T04:11:07.796Z,10.47
2018-07-14T04:13:36.186Z,12.93
2018-07-14T04:16:05.262Z,18.10
2018-07-14T04:18:33.643Z,14.07
2018-07-14T04:21:01.970Z,19.63
2018-07-14T04:23:30.261Z,12.40
2018-07-14T04:25:58.574Z,21.50
2018-07-14T04:28:26.939Z,13.13
2018-07-14T04:30:55.278Z,15.00
2018-07-14T04:33:23.613Z,14.43
2018-07-14T04:35:51.896Z,17.00
2018-07-14T04:38:20.236Z,12.97
2018-07-14T04:40:48.562Z,10.23
2018-07-14T04:43:16.966Z,13.73
2018-07-14T04:45:45.518Z,19.43
2018-07-14T04:48:13.831Z,15.27
2018-07-14T04:50:42.190Z,16.20
2018-07-14T04:53:10.624Z,15.90
2018-07-14T04:55:38.969Z,11.13
2018-07-14T04:58:07.280Z,16.53
2018-07-14T05:00:35.356Z,14.93
2018-07-14T05:03:03.695Z,15.80
2018-07-14T05:05:32.038Z,15.03
2018-07-14T05:08:00.342Z,10.63
2018-07-14T05:10:28.855Z,13.90
2018-07-14T05:12:57.210Z,22.03
2018-07-14T05:15:25.492Z,12.27
2018-07-14T05:17:53.940Z,16.47
2018-07-14T05:20:22.275Z,17.07
2018-07-14T05:22:50.735Z,17.33
2018-07-14T05:25:19.021Z,13.77
2018-07-14T05:27:47.390Z,16.30
2018-07-14T05:30:15.757Z,20.43
2018-07-14T05:32:44.247Z,15.10
2018-07-14T05:35:12.601Z,15.30
2018-07-14T05:37:40.966Z,17.57
2018-07-14T05:40:09.241Z,14.23
2018-07-14T05:42:37.541Z,17.07
2018-07-14T05:45:05.957Z,12.60
2018-07-14T05:47:35.379Z,17.83
2018-07-14T05:50:03.730Z,15.63
2018-07-14T05:52:32.154Z,13.60
2018-07-14T05:55:00.482Z,12.90
2018-07-14T05:57:28.904Z,12.43
2018-07-14T05:59:57.293Z,14.70
2018-07-14T06:02:25.683Z,13.00
2018-07-14T06:04:54.120Z,14.00
2018-07-14T06:07:22.476Z,13.20
2018-07-14T06:09:50.777Z,12.03
2018-07-14T06:12:19.100Z,14.53
2018-07-14T06:14:47.477Z,8.83
2018-07-14T06:17:15.919Z,11.47
2018-07-14T06:19:44.177Z,11.70
2018-07-14T06:22:12.465Z,20.07
2018-07-14T06:24:40.742Z,10.27
2018-07-14T06:27:09.082Z,12.43
2018-07-14T06:29:37.470Z,19.17
2018-07-14T06:32:05.966Z,14.23
2018-07-14T06:34:34.325Z,12.80
2018-07-14T06:37:02.611Z,18.30
2018-07-14T06:39:30.910Z,14.07
2018-07-14T06:41:59.215Z,10.90
2018-07-14T06:44:27.525Z,9.03
2018-07-14T06:46:56.657Z,16.87
2018-07-14T06:49:24.995Z,16.70
2018-07-14T06:51:53.354Z,14.87
2018-07-14T06:54:21.815Z,17.43
2018-07-14T06:56:50.271Z,12.80
2018-07-14T06:59:18.617Z,8.20
2018-07-14T07:01:46.980Z,12.03
2018-07-14T07:04:15.969Z,12.73
2018-07-14T07:06:44.329Z,12.50
2018-07-14T07:09:12.725Z,23.63
2018-07-14T07:11:41.141Z,12.57
2018-07-14T07:14:09.547Z,12.53
2018-07-14T07:16:37.917Z,13.90
2018-07-14T07:19:06.274Z,19.47
2018-07-14T07:21:34.633Z,10.10
2018-07-14T07:24:03.106Z,15.23
2018-07-14T07:26:31.424Z,11.87
2018-07-14T07:28:59.766Z,11.20
2018-07-14T07:31:28.076Z,16.87
2018-07-14T07:33:56.449Z,11.13
2018-07-14T07:36:24.715Z,11.30
2018-07-14T07:38:52.848Z,12.63
2018-07-14T07:41:21.207Z,10.40
2018-07-14T07:43:49.565Z,16.30
2018-07-14T07:46:18.019Z,13.60
2018-07-14T07:48:46.503Z,14.00
2018-07-14T07:51:14.809Z,11.93
2018-07-14T07:53:43.158Z,13.93
2018-07-14T07:56:12.064Z,12.00
2018-07-14T07:58:40.404Z,11.87
2018-07-14T08:01:08.760Z,14.53
2018-07-14T08:03:37.175Z,10.63
2018-07-14T08:06:05.857Z,12.40
2018-07-14T08:08:34.509Z,9.93
2018-07-14T08:11:02.556Z,9.37
2018-07-14T08:13:30.939Z,8.00
2018-07-14T08:15:59.377Z,11.67
2018-07-14T08:18:27.832Z,11.57
2018-07-14T08:20:56.214Z,7.63
2018-07-14T08:23:24.548Z,9.60
2018-07-14T08:25:52.930Z,10.00
2018-07-14T08:28:21.293Z,22.80
2018-07-14T08:30:49.634Z,11.53
2018-07-14T08:33:18.028Z,8.57
2018-07-14T08:35:46.403Z,11.80
2018-07-14T08:38:14.847Z,13.07
2018-07-14T08:40:42.933Z,8.43
2018-07-14T08:43:11.270Z,7.27
2018-07-14T08:45:39.602Z,9.60
2018-07-14T08:48:07.946Z,9.97
2018-07-14T08:50:36.467Z,8.90
2018-07-14T08:53:04.848Z,12.10
2018-07-14T08:55:33.232Z,13.20
2018-07-14T08:58:01.280Z,8.00
2018-07-14T09:00:29.714Z,12.03
2018-07-14T09:02:57.874Z,12.77
2018-07-14T09:05:26.317Z,9.00
2018-07-14T09:07:54.678Z,6.67
2018-07-14T09:10:22.997Z,7.00
2018-07-14T09:12:51.334Z,8.93
2018-07-14T09:15:19.695Z,7.80
2018-07-14T09:17:48.030Z,10.70
2018-07-14T09:20:16.410Z,10.13
2018-07-14T09:22:44.758Z,7.93
2018-07-14T09:25:13.066Z,7.53
2018-07-14T09:27:41.498Z,11.67
2018-07-14T09:30:09.825Z,6.70
2018-07-14T09:32:38.160Z,8.73
2018-07-14T09:35:06.289Z,6.00
2018-07-14T09:37:34.679Z,6.50
2018-07-14T09:40:03.006Z,7.67
2018-07-14T09:42:31.378Z,5.97
2018-07-14T09:44:59.846Z,5.53
2018-07-14T09:47:28.262Z,8.00
2018-07-14T09:49:56.601Z,6.67
2018-07-14T09:52:24.929Z,7.40
2018-07-14T09:54:53.373Z,5.73
2018-07-14T09:57:21.858Z,6.20
2018-07-14T09:59:49.937Z,7.83
2018-07-14T10:02:18.263Z,7.63
2018-07-14T10:04:46.601Z,5.37
2018-07-14T10:07:14.655Z,5.07
2018-07-14T10:09:43.092Z,5.77
2018-07-14T10:12:11.483Z,5.47
2018-07-14T10:14:39.823Z,4.80
2018-07-14T10:17:08.184Z,5.40
2018-07-14T10:19:36.633Z,5.23
2018-07-14T10:22:04.952Z,4.93
2018-07-14T10:24:33.379Z,4.97
2018-07-14T10:27:01.448Z,4.70
2018-07-14T10:29:29.550Z,5.63
2018-07-14T10:31:57.632Z,4.20
2018-07-14T10:34:25.933Z,5.20
2018-07-14T10:36:55.331Z,4.53
2018-07-14T10:39:23.746Z,5.10
2018-07-14T10:41:52.242Z,8.20
2018-07-14T10:44:20.583Z,4.57
2018-07-14T10:46:49.081Z,4.97
2018-07-14T10:49:17.438Z,5.57
2018-07-14T10:51:45.787Z,3.90
2018-07-14T10:54:14.079Z,6.93
2018-07-14T10:56:42.305Z,4.40
2018-07-14T10:59:10.701Z,13.23
2018-07-14T11:01:38.782Z,5.37
2018-07-14T11:04:07.094Z,4.10
2018-07-14T11:06:35.447Z,4.13
2018-07-14T11:09:04.591Z,5.30
2018-07-14T11:11:32.662Z,5.50
2018-07-14T11:14:00.938Z,4.03
2018-07-14T11:16:29.227Z,5.20
2018-07-14T11:18:57.625Z,4.20
2018-07-14T11:21:26.006Z,3.70
2018-07-14T11:23:55.943Z,4.23
2018-07-14T11:26:24.385Z,4.13
2018-07-14T11:28:52.779Z,5.40
2018-07-14T11:31:21.165Z,4.30
2018-07-14T11:33:49.508Z,6.90
2018-07-14T11:36:17.769Z,4.77
2018-07-14T11:38:46.097Z,3.67
2018-07-14T11:41:14.402Z,3.40
2018-07-14T11:43:42.714Z,9.27
2018-07-14T11:46:11.005Z,4.37
2018-07-14T11:48:39.293Z,4.43
2018-07-14T11:51:07.710Z,3.63
2018-07-14T11:53:36.046Z,3.93
2018-07-14T11:56:04.455Z,4.13
2018-07-14T11:58:32.808Z,3.10
2018-07-14T12:01:01.132Z,3.27
2018-07-14T12:03:29.422Z,3.87
2018-07-14T12:05:57.468Z,2.80
2018-07-14T12:08:25.641Z,3.10
2018-07-14T12:10:53.922Z,3.43
2018-07-14T12:13:22.283Z,3.13
2018-07-14T12:15:50.698Z,3.23
2018-07-14T12:18:19.038Z,3.60
2018-07-14T12:20:47.411Z,3.90
2018-07-14T12:23:15.771Z,4.87
2018-07-14T12:25:44.097Z,3.70
2018-07-14T12:28:12.474Z,5.03
2018-07-14T12:30:40.941Z,4.20
2018-07-14T12:33:10.928Z,3.57
2018-07-14T12:35:39.262Z,3.33
2018-07-14T12:38:07.702Z,7.00
2018-07-14T12:40:36.095Z,3.40
2018-07-14T12:43:04.164Z,3.63
2018-07-14T12:45:32.568Z,3.40
2018-07-14T12:48:02.176Z,3.10
2018-07-14T12:50:30.522Z,5.80
2018-07-14T12:52:58.939Z,3.87
2018-07-14T12:55:27.274Z,2.90
2018-07-14T12:57:55.670Z,3.13
2018-07-14T13:00:23.938Z,3.10
2018-07-14T13:02:52.291Z,4.40
2018-07-14T13:05:20.579Z,3.33
2018-07-14T13:07:49.030Z,2.80
2018-07-14T13:10:24.542Z,4.00
2018-07-14T13:12:52.846Z,6.63
2018-07-14T13:15:21.162Z,2.93
2018-07-14T13:17:49.542Z,2.90
2018-07-14T13:20:17.820Z,3.07
2018-07-14T13:22:46.228Z,4.93
2018-07-14T13:25:14.389Z,3.40
2018-07-14T13:27:44.679Z,3.67
2018-07-14T13:30:17.899Z,2.90
2018-07-14T13:32:45.885Z,2.57
2018-07-14T13:35:14.230Z,8.03
2018-07-14T13:37:46.978Z,3.37
2018-07-14T13:40:15.353Z,5.33
2018-07-14T13:42:54.106Z,2.50
2018-07-14T13:45:24.956Z,2.67
2018-07-14T13:47:55.057Z,3.77
2018-07-14T13:50:29.813Z,2.47
2018-07-14T13:52:58.620Z,3.30
2018-07-14T13:55:27.000Z,3.20
2018-07-14T13:57:55.996Z,3.93
2018-07-14T14:00:28.534Z,2.80
2018-07-14T14:02:56.870Z,2.50
2018-07-14T14:05:26.247Z,3.10
2018-07-14T14:07:54.555Z,2.87
2018-07-14T14:10:22.943Z,3.07
2018-07-14T14:12:51.090Z,2.77
2018-07-14T14:15:19.630Z,3.77
2018-07-14T14:17:47.755Z,2.53
2018-07-14T14:20:19.645Z,4.30
2018-07-14T14:22:47.949Z,2.50
2018-07-14T14:25:16.075Z,2.73
2018-07-14T14:27:44.633Z,2.83
2018-07-14T14:30:12.743Z,2.70
2018-07-14T14:32:40.825Z,2.43
2018-07-14T14:35:12.806Z,3.40
2018-07-14T14:37:41.142Z,3.07
2018-07-14T14:40:09.590Z,7.03
2018-07-14T14:42:38.054Z,2.80
2018-07-14T14:45:06.652Z,4.17
2018-07-14T14:47:35.025Z,2.30
2018-07-14T14:50:04.466Z,2.67
2018-07-14T14:52:32.804Z,2.93
2018-07-14T14:55:01.099Z,2.03
2018-07-14T14:57:29.539Z,2.80
2018-07-14T14:59:57.896Z,2.30
2018-07-14T15:02:26.245Z,2.37
2018-07-14T15:04:54.567Z,2.33
2018-07-14T15:07:22.870Z,2.80
2018-07-14T15:09:51.170Z,2.60
2018-07-14T15:12:19.462Z,2.67
2018-07-14T15:14:47.813Z,2.30
2018-07-14T15:17:16.184Z,2.60
2018-07-14T15:19:44.479Z,2.93
2018-07-14T15:22:12.498Z,2.77
2018-07-14T15:24:44.549Z,5.13
2018-07-14T15:27:13.703Z,2.73
2018-07-14T15:29:42.041Z,2.40
2018-07-14T15:32:10.167Z,2.97
2018-07-14T15:34:38.328Z,4.90
2018-07-14T15:37:06.646Z,2.60
2018-07-14T15:39:35.164Z,3.70
2018-07-14T15:42:03.309Z,2.87
2018-07-14T15:44:31.652Z,2.57
2018-07-14T15:47:00.089Z,2.07
2018-07-14T15:49:28.270Z,3.33
2018-07-14T15:51:56.547Z,2.40
2018-07-14T15:54:24.854Z,4.03
2018-07-14T15:56:52.925Z,3.40
2018-07-14T15:59:21.395Z,2.67
2018-07-14T16:01:50.360Z,2.67
2018-07-14T16:04:18.773Z,3.73
2018-07-14T16:06:47.121Z,2.33
2018-07-14T16:09:15.422Z,2.40
2018-07-14T16:11:43.736Z,2.60
2018-07-14T16:14:12.716Z,2.07
2018-07-14T16:16:41.049Z,2.60
2018-07-14T16:19:09.456Z,10.30
2018-07-14T16:21:37.741Z,2.20
2018-07-14T16:24:06.136Z,2.10
2018-07-14T16:26:34.242Z,4.03
2018-07-14T16:29:02.664Z,2.93
2018-07-14T16:31:31.069Z,2.40
2018-07-14T16:33:59.359Z,1.93
2018-07-14T16:36:27.764Z,2.30
2018-07-14T16:38:56.186Z,2.83
2018-07-14T16:41:24.515Z,2.10
2018-07-14T16:43:52.813Z,2.03
2018-07-14T16:46:21.555Z,2.27
2018-07-14T16:48:49.862Z,1.77
2018-07-14T16:51:17.930Z,2.30
2018-07-14T16:53:46.014Z,2.03
2018-07-14T16:56:14.069Z,2.10
2018-07-14T16:58:42.354Z,2.20
2018-07-14T17:01:10.649Z,2.87
2018-07-14T17:03:38.789Z,2.10
2018-07-14T17:06:07.170Z,1.60
2018-07-14T17:08:35.316Z,2.10
2018-07-14T17:11:03.646Z,2.73
2018-07-14T17:13:31.696Z,3.57
2018-07-14T17:15:59.826Z,4.00
2018-07-14T17:18:28.261Z,3.33
2018-07-14T17:20:57.405Z,1.63
2018-07-14T17:23:25.477Z,1.53
2018-07-14T17:25:53.790Z,3.60
2018-07-14T17:28:22.208Z,1.87
2018-07-14T17:30:50.276Z,1.90
2018-07-14T17:33:20.457Z,2.00
2018-07-14T17:35:48.489Z,1.90
2018-07-14T17:38:16.573Z,2.00
2018-07-14T17:40:45.506Z,1.60
2018-07-14T17:49:02.327Z,2.10
2018-07-14T17:51:30.535Z,2.17
2018-07-14T17:53:58.601Z,1.70
2018-07-14T17:56:28.797Z,1.90
2018-07-14T17:58:56.905Z,1.80
2018-07-14T18:01:24.979Z,2.43
2018-07-14T18:03:53.023Z,1.93
2018-07-14T18:06:21.158Z,2.33
2018-07-14T18:08:49.238Z,2.10
2018-07-14T18:11:17.326Z,2.00
2018-07-14T18:13:45.687Z,1.93
2018-07-14T18:16:14.050Z,2.23
2018-07-14T18:18:42.346Z,2.57
2018-07-14T18:21:10.670Z,1.70
2018-07-14T18:23:38.808Z,2.00
2018-07-14T18:26:06.953Z,2.00
2018-07-14T18:28:35.011Z,1.90
2018-07-14T18:31:05.162Z,1.60
2018-07-14T18:33:33.202Z,2.07
2018-07-14T18:36:01.369Z,6.63
2018-07-14T18:38:29.629Z,1.73
2018-07-14T18:40:58.072Z,3.17
2018-07-14T18:43:26.372Z,2.10
2018-07-14T18:45:54.711Z,1.87
2018-07-14T18:48:22.806Z,1.87
2018-07-14T18:50:51.119Z,1.70
2018-07-14T18:53:21.272Z,2.00
2018-07-14T18:55:49.339Z,1.73
2018-07-14T18:58:22.465Z,2.50
2018-07-14T19:00:50.832Z,1.50
2018-07-14T19:03:19.123Z,1.83
2018-07-14T19:05:47.207Z,4.47
2018-07-14T19:08:15.286Z,1.90
2018-07-14T19:10:43.643Z,1.90
2018-07-14T19:13:11.757Z,1.83
2018-07-14T19:15:39.874Z,1.90
2018-07-14T19:18:07.956Z,1.53
2018-07-14T19:20:36.014Z,2.13
2018-07-14T19:23:04.551Z,4.97
2018-07-14T19:25:32.967Z,2.10
2018-07-14T19:28:01.302Z,2.03
2018-07-14T19:30:29.534Z,2.90
2018-07-14T19:32:57.664Z,1.80
2018-07-14T19:35:26.068Z,2.83
2018-07-14T19:37:54.491Z,3.27
2018-07-14T19:40:22.980Z,2.10
2018-07-14T19:42:51.230Z,2.50
2018-07-14T19:45:19.281Z,1.90
2018-07-14T19:47:47.453Z,2.00
2018-07-14T19:50:15.861Z,3.13
2018-07-14T19:52:43.992Z,2.07
2018-07-14T19:55:12.152Z,2.03
2018-07-14T19:57:40.595Z,2.37
2018-07-14T20:00:08.736Z,3.00
2018-07-14T20:02:37.126Z,2.37
2018-07-14T20:05:05.277Z,2.00
2018-07-14T20:07:33.346Z,2.20
2018-07-14T20:10:01.426Z,1.93
2018-07-14T20:12:30.001Z,2.10
2018-07-14T20:14:58.168Z,2.50
2018-07-14T20:17:26.304Z,2.50
2018-07-14T20:19:54.905Z,2.23
2018-07-14T20:22:23.231Z,1.73
2018-07-14T20:24:51.593Z,1.40
2018-07-14T20:27:20.142Z,2.40
2018-07-14T20:29:48.321Z,5.20
2018-07-14T20:32:16.513Z,1.63
2018-07-14T20:34:44.939Z,2.23
2018-07-14T20:37:13.440Z,1.43
2018-07-14T20:39:42.226Z,1.47
2018-07-14T20:42:10.694Z,1.63
2018-07-14T20:44:38.806Z,1.70
2018-07-14T20:47:06.892Z,2.50
2018-07-14T20:49:35.153Z,1.53
2018-07-14T20:52:03.831Z,2.03
2018-07-14T20:54:31.999Z,3.03
2018-07-14T20:57:00.586Z,1.70
2018-07-14T20:59:28.674Z,1.60
2018-07-14T21:01:57.224Z,1.90
2018-07-14T21:04:25.709Z,2.60
2018-07-14T21:06:54.208Z,1.20
2018-07-14T21:09:22.698Z,3.33
2018-07-14T21:11:51.674Z,1.47
2018-07-14T21:14:19.884Z,3.33
2018-07-14T21:16:48.252Z,1.40
2018-07-14T21:19:16.411Z,1.30
2018-07-14T21:21:44.832Z,1.40
2018-07-14T21:24:16.311Z,1.40
2018-07-14T21:26:44.983Z,2.60
2018-07-14T21:29:13.455Z,1.73
2018-07-14T21:31:49.194Z,2.17
2018-07-14T21:34:24.368Z,1.60
2018-07-14T21:36:53.732Z,1.53
2018-07-14T21:39:22.047Z,1.67
2018-07-14T21:41:53.961Z,1.97
2018-07-14T21:44:22.384Z,1.60
2018-07-14T21:46:50.975Z,2.93
2018-07-14T21:49:19.214Z,9.30
2018-07-14T21:51:47.564Z,2.90
2018-07-14T21:54:17.058Z,2.00
2018-07-14T21:56:45.483Z,2.80
2018-07-14T21:59:13.898Z,1.53
2018-07-14T22:01:47.919Z,1.77
2018-07-14T22:04:16.595Z,2.30
2018-07-14T22:06:45.472Z,2.17
2018-07-14T22:09:13.919Z,2.30
2018-07-14T22:11:42.451Z,3.43
2018-07-14T22:14:10.630Z,2.57
2018-07-14T22:16:38.824Z,2.80
2018-07-14T22:19:09.117Z,2.80
2018-07-14T22:21:37.323Z,2.30
2018-07-14T22:24:05.846Z,2.90
2018-07-14T22:26:34.286Z,2.40
2018-07-14T22:29:02.832Z,4.37
2018-07-14T22:31:31.010Z,5.43
2018-07-14T22:33:59.340Z,2.63
2018-07-14T22:36:27.818Z,3.60
2018-07-14T22:38:56.481Z,2.40
2018-07-14T22:41:25.192Z,2.70
2018-07-14T22:43:53.522Z,1.90
2018-07-14T22:46:21.570Z,2.50
2018-07-14T22:48:49.739Z,2.23
2018-07-14T22:51:17.867Z,2.00
2018-07-14T22:53:46.092Z,2.20
2018-07-14T22:56:14.252Z,2.73
2018-07-14T22:58:42.392Z,2.13
2018-07-14T23:01:10.624Z,6.00
2018-07-14T23:03:38.753Z,3.00
2018-07-14T23:06:06.835Z,2.00
2018-07-14T23:08:34.977Z,5.37
2018-07-14T23:11:08.854Z,2.53
2018-07-14T23:13:37.037Z,2.70
2018-07-14T23:16:05.190Z,2.03
2018-07-14T23:18:34.383Z,3.23
2018-07-14T23:21:02.456Z,2.63
2018-07-14T23:23:30.513Z,4.13
2018-07-14T23:25:58.701Z,2.60
2018-07-14T23:28:27.028Z,2.70
2018-07-14T23:30:55.128Z,2.70
2018-07-14T23:33:23.189Z,2.30
2018-07-14T23:35:51.297Z,2.80
2018-07-14T23:38:19.365Z,2.30
2018-07-14T23:40:47.655Z,2.50
2018-07-14T23:43:15.707Z,2.53
2018-07-14T23:45:43.782Z,5.00
2018-07-14T23:48:15.674Z,2.27
2018-07-14T23:50:43.809Z,2.60
2018-07-14T23:53:11.989Z,2.17
2018-07-14T23:55:40.053Z,2.40
2018-07-14T23:58:08.228Z,2.47
